EGKA

Shoreham Airport

Brighton, United Kingdom
METAR EGKA 141950Z 07007KT 9999 BKN032 02/M02 Q1023
Observed Flight Rules
Dec-14 @ 19:50 UTC (12 hours ago) Visual Flight Rules
Wind Visibility Clouds
70° at 7 knots 10,000+ meters
  • Broken at 3,200' AGL
Temperatures Readings
Current 2°C / 36°F
Dewpoint -2°C / 28°F
Humidity 75%
Altimeter 30.21" Hg
Pressure 1023 hPa
Elevation 2
METAR EGKA 141950Z 07007KT 9999 BKN032 02/M02 Q1023
Observed Flight Rules
Dec-14 @ 19:50 UTC
(12 hours ago)
VFR
Wind Visibility
70° at 7 knots 10,000+ meters
Clouds
  • Broken at 3,200' AGL
Temperature Dewpoint
2°C / 36°F -2°C / 28°F
Humidity Altimeter Pressure
75% 30.21" Hg 1023 hPa